sensor_id;sensor_type;location;lat;lon;timestamp;pressure;altitude;pressure_sealevel;temperature
15709;BMP180;7954;51.914;8.420;2022-10-31T00:01:38;100763.69;;;20.36
15709;BMP180;7954;51.914;8.420;2022-10-31T00:04:06;100781.03;;;20.32
15709;BMP180;7954;51.914;8.420;2022-10-31T00:06:34;100785.34;;;20.26
15709;BMP180;7954;51.914;8.420;2022-10-31T00:09:03;100778.88;;;20.22
15709;BMP180;7954;51.914;8.420;2022-10-31T00:11:33;100781.38;;;20.15
15709;BMP180;7954;51.914;8.420;2022-10-31T00:14:01;100771.19;;;20.10
15709;BMP180;7954;51.914;8.420;2022-10-31T00:16:29;100788.34;;;20.04
15709;BMP180;7954;51.914;8.420;2022-10-31T00:18:59;100796.56;;;20.02
15709;BMP180;7954;51.914;8.420;2022-10-31T00:21:28;100792.22;;;19.95
15709;BMP180;7954;51.914;8.420;2022-10-31T00:23:57;100802.34;;;19.88
15709;BMP180;7954;51.914;8.420;2022-10-31T00:26:26;100809.19;;;19.82
15709;BMP180;7954;51.914;8.420;2022-10-31T00:28:56;100795.22;;;19.80
15709;BMP180;7954;51.914;8.420;2022-10-31T00:31:24;100800.16;;;19.79
15709;BMP180;7954;51.914;8.420;2022-10-31T00:33:52;100797.91;;;19.75
15709;BMP180;7954;51.914;8.420;2022-10-31T00:36:20;100809.81;;;19.74
15709;BMP180;7954;51.914;8.420;2022-10-31T00:38:48;100800.06;;;19.72
15709;BMP180;7954;51.914;8.420;2022-10-31T00:41:18;100798.09;;;19.64
15709;BMP180;7954;51.914;8.420;2022-10-31T00:43:46;100809.34;;;19.59
15709;BMP180;7954;51.914;8.420;2022-10-31T00:46:16;100804.22;;;19.59
15709;BMP180;7954;51.914;8.420;2022-10-31T00:48:44;100805.03;;;19.52
15709;BMP180;7954;51.914;8.420;2022-10-31T00:51:12;100813.22;;;19.50
15709;BMP180;7954;51.914;8.420;2022-10-31T00:53:40;100813.72;;;19.47
15709;BMP180;7954;51.914;8.420;2022-10-31T00:56:09;100807.25;;;19.44
15709;BMP180;7954;51.914;8.420;2022-10-31T00:58:37;100809.41;;;19.41
15709;BMP180;7954;51.914;8.420;2022-10-31T01:01:07;100803.34;;;19.40
15709;BMP180;7954;51.914;8.420;2022-10-31T01:03:37;100815.53;;;19.36
15709;BMP180;7954;51.914;8.420;2022-10-31T01:06:08;100810.22;;;19.35
15709;BMP180;7954;51.914;8.420;2022-10-31T01:08:37;100820.53;;;19.29
15709;BMP180;7954;51.914;8.420;2022-10-31T01:11:08;100828.91;;;19.28
15709;BMP180;7954;51.914;8.420;2022-10-31T01:13:36;100822.22;;;19.23
15709;BMP180;7954;51.914;8.420;2022-10-31T01:16:05;100822.53;;;19.19
15709;BMP180;7954;51.914;8.420;2022-10-31T01:18:33;100827.44;;;19.18
15709;BMP180;7954;51.914;8.420;2022-10-31T01:21:05;100835.63;;;19.15
15709;BMP180;7954;51.914;8.420;2022-10-31T01:23:34;100829.16;;;19.12
15709;BMP180;7954;51.914;8.420;2022-10-31T01:26:05;100831.72;;;19.12
15709;BMP180;7954;51.914;8.420;2022-10-31T01:28:34;100830.34;;;19.08
15709;BMP180;7954;51.914;8.420;2022-10-31T01:31:04;100833.66;;;19.07
15709;BMP180;7954;51.914;8.420;2022-10-31T01:33:33;100821.06;;;19.03
15709;BMP180;7954;51.914;8.420;2022-10-31T01:36:00;100827.44;;;19.00
15709;BMP180;7954;51.914;8.420;2022-10-31T01:38:30;100826.50;;;18.99
15709;BMP180;7954;51.914;8.420;2022-10-31T01:40:58;100826.78;;;18.95
15709;BMP180;7954;51.914;8.420;2022-10-31T01:43:41;100841.94;;;18.94
15709;BMP180;7954;51.914;8.420;2022-10-31T01:46:10;100825.63;;;18.93
15709;BMP180;7954;51.914;8.420;2022-10-31T01:48:39;100828.50;;;18.89
15709;BMP180;7954;51.914;8.420;2022-10-31T01:51:11;100816.41;;;18.88
15709;BMP180;7954;51.914;8.420;2022-10-31T01:53:43;100815.06;;;18.85
15709;BMP180;7954;51.914;8.420;2022-10-31T01:56:13;100823.25;;;18.82
15709;BMP180;7954;51.914;8.420;2022-10-31T01:58:42;100821.88;;;18.79
15709;BMP180;7954;51.914;8.420;2022-10-31T02:01:13;100821.88;;;18.79
15709;BMP180;7954;51.914;8.420;2022-10-31T02:03:43;100822.19;;;18.75
15709;BMP180;7954;51.914;8.420;2022-10-31T02:06:21;100823.50;;;18.78
15709;BMP180;7954;51.914;8.420;2022-10-31T02:08:53;100821.69;;;18.77
15709;BMP180;7954;51.914;8.420;2022-10-31T02:11:22;100827.50;;;18.76
15709;BMP180;7954;51.914;8.420;2022-10-31T02:13:50;100835.19;;;18.76
15709;BMP180;7954;51.914;8.420;2022-10-31T02:16:18;100831.47;;;18.74
15709;BMP180;7954;51.914;8.420;2022-10-31T02:18:47;100829.63;;;18.73
15709;BMP180;7954;51.914;8.420;2022-10-31T02:21:18;100824.94;;;18.76
15709;BMP180;7954;51.914;8.420;2022-10-31T02:24:24;100821.41;;;18.81
15709;BMP180;7954;51.914;8.420;2022-10-31T02:27:02;100829.47;;;18.84
15709;BMP180;7954;51.914;8.420;2022-10-31T02:30:01;100817.84;;;18.86
15709;BMP180;7954;51.914;8.420;2022-10-31T02:35:32;100801.00;;;18.94
15709;BMP180;7954;51.914;8.420;2022-10-31T02:38:09;100811.22;;;18.94
15709;BMP180;7954;51.914;8.420;2022-10-31T02:40:45;100821.66;;;18.95
15709;BMP180;7954;51.914;8.420;2022-10-31T02:43:19;100827.19;;;18.98
15709;BMP180;7954;51.914;8.420;2022-10-31T02:45:52;100831.63;;;18.99
15709;BMP180;7954;51.914;8.420;2022-10-31T02:48:26;100843.13;;;18.90
15709;BMP180;7954;51.914;8.420;2022-10-31T02:50:57;100852.38;;;18.95
15709;BMP180;7954;51.914;8.420;2022-10-31T02:53:26;100843.72;;;19.00
15709;BMP180;7954;51.914;8.420;2022-10-31T02:56:02;100850.41;;;19.05
15709;BMP180;7954;51.914;8.420;2022-10-31T02:58:35;100855.69;;;19.12
15709;BMP180;7954;51.914;8.420;2022-10-31T03:01:20;100852.56;;;19.20
15709;BMP180;7954;51.914;8.420;2022-10-31T03:04:15;100845.44;;;19.30
15709;BMP180;7954;51.914;8.420;2022-10-31T03:06:49;100843.72;;;19.36
15709;BMP180;7954;51.914;8.420;2022-10-31T03:09:23;100849.25;;;19.39
15709;BMP180;7954;51.914;8.420;2022-10-31T03:11:58;100831.25;;;19.44
15709;BMP180;7954;51.914;8.420;2022-10-31T03:14:33;100825.19;;;19.44
15709;BMP180;7954;51.914;8.420;2022-10-31T03:17:05;100832.38;;;19.46
15709;BMP180;7954;51.914;8.420;2022-10-31T03:19:39;100828.19;;;19.47
15709;BMP180;7954;51.914;8.420;2022-10-31T03:22:15;100818.66;;;19.46
15709;BMP180;7954;51.914;8.420;2022-10-31T03:24:45;100817.94;;;19.47
15709;BMP180;7954;51.914;8.420;2022-10-31T03:27:18;100820.78;;;19.43
15709;BMP180;7954;51.914;8.420;2022-10-31T03:29:49;100813.88;;;19.36
15709;BMP180;7954;51.914;8.420;2022-10-31T03:32:21;100815.19;;;19.28
15709;BMP180;7954;51.914;8.420;2022-10-31T03:34:54;100813.63;;;19.23
15709;BMP180;7954;51.914;8.420;2022-10-31T03:37:26;100820.16;;;19.21
15709;BMP180;7954;51.914;8.420;2022-10-31T03:39:56;100816.06;;;19.16
15709;BMP180;7954;51.914;8.420;2022-10-31T03:42:28;100811.44;;;19.13
15709;BMP180;7954;51.914;8.420;2022-10-31T03:45:00;100811.03;;;19.10
15709;BMP180;7954;51.914;8.420;2022-10-31T03:47:30;100822.69;;;19.08
15709;BMP180;7954;51.914;8.420;2022-10-31T03:50:00;100837.84;;;19.07
15709;BMP180;7954;51.914;8.420;2022-10-31T03:52:31;100830.91;;;19.00
15709;BMP180;7954;51.914;8.420;2022-10-31T03:55:07;100850.25;;;18.98
15709;BMP180;7954;51.914;8.420;2022-10-31T03:57:37;100849.13;;;18.96
15709;BMP180;7954;51.914;8.420;2022-10-31T04:00:08;100839.66;;;18.90
15709;BMP180;7954;51.914;8.420;2022-10-31T04:02:39;100845.28;;;18.87
15709;BMP180;7954;51.914;8.420;2022-10-31T04:05:11;100849.47;;;18.87
15709;BMP180;7954;51.914;8.420;2022-10-31T04:07:43;100837.88;;;18.83
15709;BMP180;7954;51.914;8.420;2022-10-31T04:10:15;100839.31;;;18.81
15709;BMP180;7954;51.914;8.420;2022-10-31T04:12:48;100847.78;;;18.75
15709;BMP180;7954;51.914;8.420;2022-10-31T04:15:19;100848.75;;;18.70
15709;BMP180;7954;51.914;8.420;2022-10-31T04:17:50;100854.63;;;18.64
15709;BMP180;7954;51.914;8.420;2022-10-31T04:20:29;100848.81;;;18.65
15709;BMP180;7954;51.914;8.420;2022-10-31T04:22:57;100850.25;;;18.63
15709;BMP180;7954;51.914;8.420;2022-10-31T04:25:25;100851.94;;;18.57
15709;BMP180;7954;51.914;8.420;2022-10-31T04:27:54;100854.03;;;18.54
15709;BMP180;7954;51.914;8.420;2022-10-31T04:30:23;100858.53;;;18.49
15709;BMP180;7954;51.914;8.420;2022-10-31T04:32:51;100848.09;;;18.48
15709;BMP180;7954;51.914;8.420;2022-10-31T04:35:19;100852.75;;;18.45
15709;BMP180;7954;51.914;8.420;2022-10-31T04:37:50;100852.81;;;18.39
15709;BMP180;7954;51.914;8.420;2022-10-31T04:40:17;100854.00;;;18.36
15709;BMP180;7954;51.914;8.420;2022-10-31T04:42:45;100844.97;;;18.32
15709;BMP180;7954;51.914;8.420;2022-10-31T04:45:13;100841.28;;;18.30
15709;BMP180;7954;51.914;8.420;2022-10-31T04:47:46;100851.72;;;18.32
15709;BMP180;7954;51.914;8.420;2022-10-31T04:50:14;100838.97;;;18.26
15709;BMP180;7954;51.914;8.420;2022-10-31T04:52:44;100842.31;;;18.20
15709;BMP180;7954;51.914;8.420;2022-10-31T04:55:14;100836.06;;;18.18
15709;BMP180;7954;51.914;8.420;2022-10-31T04:57:43;100837.66;;;18.17
15709;BMP180;7954;51.914;8.420;2022-10-31T05:00:14;100836.75;;;18.17
15709;BMP180;7954;51.914;8.420;2022-10-31T05:02:44;100840.47;;;18.13
15709;BMP180;7954;51.914;8.420;2022-10-31T05:05:14;100838.41;;;18.11
15709;BMP180;7954;51.914;8.420;2022-10-31T05:07:43;100832.16;;;18.09
15709;BMP180;7954;51.914;8.420;2022-10-31T05:10:16;100832.88;;;18.08
15709;BMP180;7954;51.914;8.420;2022-10-31T05:12:48;100826.63;;;18.06
15709;BMP180;7954;51.914;8.420;2022-10-31T05:15:18;100826.63;;;18.06
15709;BMP180;7954;51.914;8.420;2022-10-31T05:17:46;100818.53;;;18.03
15709;BMP180;7954;51.914;8.420;2022-10-31T05:20:17;100827.59;;;18.01
15709;BMP180;7954;51.914;8.420;2022-10-31T05:22:47;100815.09;;;17.97
15709;BMP180;7954;51.914;8.420;2022-10-31T05:25:18;100819.75;;;17.94
15709;BMP180;7954;51.914;8.420;2022-10-31T05:27:48;100817.66;;;17.92
15709;BMP180;7954;51.914;8.420;2022-10-31T05:30:18;100820.22;;;17.92
15709;BMP180;7954;51.914;8.420;2022-10-31T05:32:48;100822.09;;;17.93
15709;BMP180;7954;51.914;8.420;2022-10-31T05:35:18;100830.25;;;17.90
15709;BMP180;7954;51.914;8.420;2022-10-31T05:37:48;100826.97;;;17.91
15709;BMP180;7954;51.914;8.420;2022-10-31T05:40:19;100821.66;;;17.90
15709;BMP180;7954;51.914;8.420;2022-10-31T05:42:50;100824.50;;;17.86
15709;BMP180;7954;51.914;8.420;2022-10-31T05:45:19;100828.22;;;17.82
15709;BMP180;7954;51.914;8.420;2022-10-31T05:47:50;100825.88;;;17.84
15709;BMP180;7954;51.914;8.420;2022-10-31T05:50:20;100830.78;;;17.82
15709;BMP180;7954;51.914;8.420;2022-10-31T05:52:54;100833.34;;;17.82
15709;BMP180;7954;51.914;8.420;2022-10-31T05:55:24;100825.94;;;17.78
15709;BMP180;7954;51.914;8.420;2022-10-31T05:57:52;100823.38;;;17.78
15709;BMP180;7954;51.914;8.420;2022-10-31T06:00:21;100824.13;;;17.72
15709;BMP180;7954;51.914;8.420;2022-10-31T06:02:49;100824.13;;;17.72
15709;BMP180;7954;51.914;8.420;2022-10-31T06:05:24;100817.41;;;17.72
15709;BMP180;7954;51.914;8.420;2022-10-31T06:07:52;100827.34;;;17.76
15709;BMP180;7954;51.914;8.420;2022-10-31T06:10:21;100827.56;;;17.78
15709;BMP180;7954;51.914;8.420;2022-10-31T06:12:50;100829.63;;;17.80
15709;BMP180;7954;51.914;8.420;2022-10-31T06:15:18;100823.13;;;17.82
15709;BMP180;7954;51.914;8.420;2022-10-31T06:17:57;100830.50;;;17.86
15709;BMP180;7954;51.914;8.420;2022-10-31T06:20:26;100830.50;;;17.86
15709;BMP180;7954;51.914;8.420;2022-10-31T06:22:54;100830.94;;;17.89
15709;BMP180;7954;51.914;8.420;2022-10-31T06:25:23;100835.34;;;17.90
15709;BMP180;7954;51.914;8.420;2022-10-31T06:27:53;100837.91;;;17.90
15709;BMP180;7954;51.914;8.420;2022-10-31T06:30:20;100837.91;;;17.90
15709;BMP180;7954;51.914;8.420;2022-10-31T06:32:48;100832.78;;;17.90
15709;BMP180;7954;51.914;8.420;2022-10-31T06:35:17;100833.28;;;17.88
15709;BMP180;7954;51.914;8.420;2022-10-31T06:37:51;100835.34;;;17.90
15709;BMP180;7954;51.914;8.420;2022-10-31T06:40:18;100829.53;;;17.91
15709;BMP180;7954;51.914;8.420;2022-10-31T06:42:47;100826.97;;;17.91
15709;BMP180;7954;51.914;8.420;2022-10-31T06:45:16;100840.47;;;17.90
15709;BMP180;7954;51.914;8.420;2022-10-31T06:47:50;100836.50;;;17.92
15709;BMP180;7954;51.914;8.420;2022-10-31T06:50:38;100844.81;;;17.97
15709;BMP180;7954;51.914;8.420;2022-10-31T06:53:06;100850.91;;;17.92
15709;BMP180;7954;51.914;8.420;2022-10-31T06:55:35;100856.47;;;17.95
15709;BMP180;7954;51.914;8.420;2022-10-31T06:58:03;100858.31;;;17.96
15709;BMP180;7954;51.914;8.420;2022-10-31T07:00:33;100859.22;;;17.96
15709;BMP180;7954;51.914;8.420;2022-10-31T07:03:03;100852.25;;;18.01
15709;BMP180;7954;51.914;8.420;2022-10-31T07:05:32;100850.81;;;18.02
15709;BMP180;7954;51.914;8.420;2022-10-31T07:08:02;100850.53;;;18.06
15709;BMP180;7954;51.914;8.420;2022-10-31T07:10:32;100851.19;;;18.11
15709;BMP180;7954;51.914;8.420;2022-10-31T07:13:10;100855.34;;;18.16
15709;BMP180;7954;51.914;8.420;2022-10-31T07:15:42;100853.69;;;18.22
15709;BMP180;7954;51.914;8.420;2022-10-31T07:18:11;100848.28;;;18.26
15709;BMP180;7954;51.914;8.420;2022-10-31T07:20:39;100848.47;;;18.33
15709;BMP180;7954;51.914;8.420;2022-10-31T07:23:09;100844.47;;;18.35
15709;BMP180;7954;51.914;8.420;2022-10-31T07:25:37;100845.78;;;18.44
15709;BMP180;7954;51.914;8.420;2022-10-31T07:28:05;100844.53;;;18.53
15709;BMP180;7954;51.914;8.420;2022-10-31T07:30:34;100840.00;;;18.63
15709;BMP180;7954;51.914;8.420;2022-10-31T07:33:04;100843.41;;;18.68
15709;BMP180;7954;51.914;8.420;2022-10-31T07:35:32;100830.97;;;18.77
15709;BMP180;7954;51.914;8.420;2022-10-31T07:38:08;100840.66;;;18.85
15709;BMP180;7954;51.914;8.420;2022-10-31T07:40:38;100846.56;;;18.96
15709;BMP180;7954;51.914;8.420;2022-10-31T07:43:06;100840.38;;;19.07
15709;BMP180;7954;51.914;8.420;2022-10-31T07:45:39;100846.28;;;19.18
15709;BMP180;7954;51.914;8.420;2022-10-31T07:48:09;100843.38;;;19.28
15709;BMP180;7954;51.914;8.420;2022-10-31T07:50:37;100844.63;;;19.36
15709;BMP180;7954;51.914;8.420;2022-10-31T07:53:07;100833.38;;;19.41
15709;BMP180;7954;51.914;8.420;2022-10-31T07:55:35;100837.63;;;19.53
15709;BMP180;7954;51.914;8.420;2022-10-31T07:58:06;100838.69;;;19.61
15709;BMP180;7954;51.914;8.420;2022-10-31T08:00:35;100831.59;;;19.65
15709;BMP180;7954;51.914;8.420;2022-10-31T08:03:04;100839.81;;;19.75
15709;BMP180;7954;51.914;8.420;2022-10-31T08:05:35;100837.41;;;19.82
15709;BMP180;7954;51.914;8.420;2022-10-31T08:08:04;100835.88;;;19.90
15709;BMP180;7954;51.914;8.420;2022-10-31T08:10:33;100829.75;;;19.95
15709;BMP180;7954;51.914;8.420;2022-10-31T08:13:03;100835.22;;;20.03
15709;BMP180;7954;51.914;8.420;2022-10-31T08:15:32;100843.50;;;20.07
15709;BMP180;7954;51.914;8.420;2022-10-31T08:18:00;100828.25;;;20.14
15709;BMP180;7954;51.914;8.420;2022-10-31T08:20:29;100834.00;;;20.19
15709;BMP180;7954;51.914;8.420;2022-10-31T08:23:00;100831.00;;;20.28
15709;BMP180;7954;51.914;8.420;2022-10-31T08:25:31;100824.34;;;20.36
15709;BMP180;7954;51.914;8.420;2022-10-31T08:28:05;100820.97;;;20.42
15709;BMP180;7954;51.914;8.420;2022-10-31T08:30:35;100815.31;;;20.45
15709;BMP180;7954;51.914;8.420;2022-10-31T08:33:09;100816.63;;;20.48
15709;BMP180;7954;51.914;8.420;2022-10-31T08:35:37;100822.91;;;20.50
15709;BMP180;7954;51.914;8.420;2022-10-31T08:38:08;100817.97;;;20.52
15709;BMP180;7954;51.914;8.420;2022-10-31T08:40:37;100814.16;;;20.55
15709;BMP180;7954;51.914;8.420;2022-10-31T08:43:06;100809.44;;;20.58
15709;BMP180;7954;51.914;8.420;2022-10-31T08:45:35;100807.47;;;20.63
15709;BMP180;7954;51.914;8.420;2022-10-31T08:48:04;100798.56;;;20.66
15709;BMP180;7954;51.914;8.420;2022-10-31T08:50:34;100804.28;;;20.70
15709;BMP180;7954;51.914;8.420;2022-10-31T08:53:05;100804.94;;;20.75
15709;BMP180;7954;51.914;8.420;2022-10-31T08:55:35;100793.09;;;20.82
15709;BMP180;7954;51.914;8.420;2022-10-31T08:58:06;100789.69;;;20.89
15709;BMP180;7954;51.914;8.420;2022-10-31T09:00:35;100792.66;;;20.92
15709;BMP180;7954;51.914;8.420;2022-10-31T09:03:09;100803.31;;;20.95
15709;BMP180;7954;51.914;8.420;2022-10-31T09:05:41;100794.78;;;21.01
15709;BMP180;7954;51.914;8.420;2022-10-31T09:08:10;100786.44;;;21.09
15709;BMP180;7954;51.914;8.420;2022-10-31T09:10:44;100786.16;;;21.20
15709;BMP180;7954;51.914;8.420;2022-10-31T09:13:13;100789.34;;;21.25
15709;BMP180;7954;51.914;8.420;2022-10-31T09:15:44;100786.09;;;21.32
15709;BMP180;7954;51.914;8.420;2022-10-31T09:18:15;100779.19;;;21.38
15709;BMP180;7954;51.914;8.420;2022-10-31T09:20:45;100779.78;;;21.43
15709;BMP180;7954;51.914;8.420;2022-10-31T09:23:15;100768.66;;;21.49
15709;BMP180;7954;51.914;8.420;2022-10-31T09:25:46;100768.34;;;21.53
15709;BMP180;7954;51.914;8.420;2022-10-31T09:28:18;100782.00;;;21.59
15709;BMP180;7954;51.914;8.420;2022-10-31T09:30:47;100790.50;;;21.65
15709;BMP180;7954;51.914;8.420;2022-10-31T09:33:17;100780.25;;;21.72
15709;BMP180;7954;51.914;8.420;2022-10-31T09:35:45;100782.16;;;21.80
15709;BMP180;7954;51.914;8.420;2022-10-31T09:38:15;100777.81;;;21.86
15709;BMP180;7954;51.914;8.420;2022-10-31T09:40:49;100773.81;;;21.95
15709;BMP180;7954;51.914;8.420;2022-10-31T09:43:25;100768.16;;;22.04
15709;BMP180;7954;51.914;8.420;2022-10-31T09:46:01;100771.16;;;22.14
15709;BMP180;7954;51.914;8.420;2022-10-31T09:48:50;100778.41;;;22.24
15709;BMP180;7954;51.914;8.420;2022-10-31T09:51:25;100784.19;;;22.28
15709;BMP180;7954;51.914;8.420;2022-10-31T09:54:01;100776.28;;;22.34
15709;BMP180;7954;51.914;8.420;2022-10-31T09:56:31;100782.59;;;22.43
15709;BMP180;7954;51.914;8.420;2022-10-31T09:59:03;100777.13;;;22.54
15709;BMP180;7954;51.914;8.420;2022-10-31T10:01:42;100779.94;;;22.62
15709;BMP180;7954;51.914;8.420;2022-10-31T10:04:31;100767.09;;;22.76
15709;BMP180;7954;51.914;8.420;2022-10-31T10:07:05;100761.44;;;22.85
15709;BMP180;7954;51.914;8.420;2022-10-31T10:09:36;100765.69;;;22.92
15709;BMP180;7954;51.914;8.420;2022-10-31T10:12:12;100769.59;;;23.02
15709;BMP180;7954;51.914;8.420;2022-10-31T10:14:54;100756.56;;;23.15
15709;BMP180;7954;51.914;8.420;2022-10-31T10:17:34;100760.44;;;23.25
15709;BMP180;7954;51.914;8.420;2022-10-31T10:20:20;100750.16;;;23.39
15709;BMP180;7954;51.914;8.420;2022-10-31T10:22:59;100751.06;;;23.46
15709;BMP180;7954;51.914;8.420;2022-10-31T10:25:33;100742.59;;;23.54
15709;BMP180;7954;51.914;8.420;2022-10-31T10:28:10;100740.19;;;23.63
15709;BMP180;7954;51.914;8.420;2022-10-31T10:30:42;100733.97;;;23.75
15709;BMP180;7954;51.914;8.420;2022-10-31T10:33:15;100727.47;;;23.85
15709;BMP180;7954;51.914;8.420;2022-10-31T10:35:46;100730.41;;;24.02
15709;BMP180;7954;51.914;8.420;2022-10-31T10:38:20;100730.75;;;24.12
15709;BMP180;7954;51.914;8.420;2022-10-31T10:40:52;100718.34;;;24.23
15709;BMP180;7954;51.914;8.420;2022-10-31T10:43:24;100719.03;;;24.36
15709;BMP180;7954;51.914;8.420;2022-10-31T10:46:03;100706.13;;;24.50
15709;BMP180;7954;51.914;8.420;2022-10-31T10:48:56;100699.56;;;24.67
15709;BMP180;7954;51.914;8.420;2022-10-31T10:51:31;100698.75;;;24.82
15709;BMP180;7954;51.914;8.420;2022-10-31T10:54:53;100679.19;;;25.07
15709;BMP180;7954;51.914;8.420;2022-10-31T10:57:38;100681.00;;;25.15
15709;BMP180;7954;51.914;8.420;2022-10-31T11:00:18;100673.69;;;25.26
15709;BMP180;7954;51.914;8.420;2022-10-31T11:02:46;100674.88;;;25.36
15709;BMP180;7954;51.914;8.420;2022-10-31T11:05:22;100673.00;;;25.42
15709;BMP180;7954;51.914;8.420;2022-10-31T11:07:50;100663.34;;;25.48
15709;BMP180;7954;51.914;8.420;2022-10-31T11:10:18;100652.34;;;25.58
15709;BMP180;7954;51.914;8.420;2022-10-31T11:13:00;100651.69;;;25.67
15709;BMP180;7954;51.914;8.420;2022-10-31T11:15:32;100649.53;;;25.79
15709;BMP180;7954;51.914;8.420;2022-10-31T11:18:01;100649.31;;;25.84
15709;BMP180;7954;51.914;8.420;2022-10-31T11:20:31;100650.38;;;25.86
15709;BMP180;7954;51.914;8.420;2022-10-31T11:23:04;100642.47;;;25.85
15709;BMP180;7954;51.914;8.420;2022-10-31T11:25:33;100642.63;;;25.86
15709;BMP180;7954;51.914;8.420;2022-10-31T11:28:02;100638.53;;;25.88
15709;BMP180;7954;51.914;8.420;2022-10-31T11:30:45;100629.94;;;25.96
15709;BMP180;7954;51.914;8.420;2022-10-31T11:33:18;100626.69;;;25.90
15709;BMP180;7954;51.914;8.420;2022-10-31T11:35:47;100627.03;;;25.93
15709;BMP180;7954;51.914;8.420;2022-10-31T11:38:24;100619.75;;;25.97
15709;BMP180;7954;51.914;8.420;2022-10-31T11:40:56;100621.19;;;26.02
15709;BMP180;7954;51.914;8.420;2022-10-31T11:43:26;100617.66;;;26.02
15709;BMP180;7954;51.914;8.420;2022-10-31T11:45:56;100613.56;;;26.04
15709;BMP180;7954;51.914;8.420;2022-10-31T11:48:24;100611.47;;;26.08
15709;BMP180;7954;51.914;8.420;2022-10-31T11:50:55;100611.66;;;26.10
15709;BMP180;7954;51.914;8.420;2022-10-31T11:53:26;100596.59;;;26.14
15709;BMP180;7954;51.914;8.420;2022-10-31T11:56:05;100588.59;;;26.20
15709;BMP180;7954;51.914;8.420;2022-10-31T11:58:34;100588.16;;;26.24
15709;BMP180;7954;51.914;8.420;2022-10-31T12:01:03;100593.66;;;26.27
15709;BMP180;7954;51.914;8.420;2022-10-31T12:03:50;100585.06;;;26.35
15709;BMP180;7954;51.914;8.420;2022-10-31T12:06:23;100570.16;;;26.41
15709;BMP180;7954;51.914;8.420;2022-10-31T12:08:51;100567.03;;;26.52
15709;BMP180;7954;51.914;8.420;2022-10-31T12:11:40;100563.03;;;26.70
15709;BMP180;7954;51.914;8.420;2022-10-31T12:14:20;100557.63;;;26.84
15709;BMP180;7954;51.914;8.420;2022-10-31T12:16:56;100558.66;;;27.02
15709;BMP180;7954;51.914;8.420;2022-10-31T12:19:34;100558.56;;;27.17
15709;BMP180;7954;51.914;8.420;2022-10-31T12:22:13;100562.72;;;27.32
15709;BMP180;7954;51.914;8.420;2022-10-31T12:24:56;100547.47;;;27.43
15709;BMP180;7954;51.914;8.420;2022-10-31T12:27:38;100541.75;;;27.63
15709;BMP180;7954;51.914;8.420;2022-10-31T12:30:15;100533.81;;;27.78
15709;BMP180;7954;51.914;8.420;2022-10-31T12:33:10;100530.91;;;27.92
15709;BMP180;7954;51.914;8.420;2022-10-31T12:35:45;100524.97;;;28.01
15709;BMP180;7954;51.914;8.420;2022-10-31T12:38:34;100517.03;;;28.08
15709;BMP180;7954;51.914;8.420;2022-10-31T12:41:20;100504.81;;;28.24
15709;BMP180;7954;51.914;8.420;2022-10-31T12:43:55;100489.50;;;28.36
15709;BMP180;7954;51.914;8.420;2022-10-31T12:46:34;100482.75;;;28.38
15709;BMP180;7954;51.914;8.420;2022-10-31T12:49:22;100473.75;;;28.34
15709;BMP180;7954;51.914;8.420;2022-10-31T12:52:03;100465.50;;;28.30
15709;BMP180;7954;51.914;8.420;2022-10-31T12:54:43;100475.91;;;28.21
15709;BMP180;7954;51.914;8.420;2022-10-31T12:57:23;100479.75;;;28.16
15709;BMP180;7954;51.914;8.420;2022-10-31T12:59:57;100473.91;;;28.10
15709;BMP180;7954;51.914;8.420;2022-10-31T13:02:31;100475.75;;;28.11
15709;BMP180;7954;51.914;8.420;2022-10-31T13:05:05;100465.69;;;28.06
15709;BMP180;7954;51.914;8.420;2022-10-31T13:07:44;100463.84;;;28.05
15709;BMP180;7954;51.914;8.420;2022-10-31T13:10:17;100460.16;;;28.03
15709;BMP180;7954;51.914;8.420;2022-10-31T13:12:49;100459.28;;;28.02
15709;BMP180;7954;51.914;8.420;2022-10-31T13:15:20;100457.00;;;27.97
15709;BMP180;7954;51.914;8.420;2022-10-31T13:17:51;100445.53;;;27.95
15709;BMP180;7954;51.914;8.420;2022-10-31T13:20:27;100446.44;;;27.95
15709;BMP180;7954;51.914;8.420;2022-10-31T13:23:05;100445.81;;;27.98
15709;BMP180;7954;51.914;8.420;2022-10-31T13:25:56;100436.50;;;28.00
15709;BMP180;7954;51.914;8.420;2022-10-31T13:28:30;100420.91;;;28.00
15709;BMP180;7954;51.914;8.420;2022-10-31T13:30:59;100429.63;;;28.00
15709;BMP180;7954;51.914;8.420;2022-10-31T13:33:29;100427.00;;;28.00
15709;BMP180;7954;51.914;8.420;2022-10-31T13:36:09;100421.53;;;28.06
15709;BMP180;7954;51.914;8.420;2022-10-31T13:38:44;100418.75;;;28.13
15709;BMP180;7954;51.914;8.420;2022-10-31T13:41:26;100418.63;;;28.20
15709;BMP180;7954;51.914;8.420;2022-10-31T13:44:00;100409.56;;;28.25
15709;BMP180;7954;51.914;8.420;2022-10-31T13:46:39;100408.78;;;28.34
15709;BMP180;7954;51.914;8.420;2022-10-31T13:49:25;100406.00;;;28.41
15709;BMP180;7954;51.914;8.420;2022-10-31T13:52:05;100390.41;;;28.41
15709;BMP180;7954;51.914;8.420;2022-10-31T13:54:35;100392.22;;;28.42
15709;BMP180;7954;51.914;8.420;2022-10-31T13:57:06;100387.94;;;28.43
15709;BMP180;7954;51.914;8.420;2022-10-31T13:59:37;100387.91;;;28.51
15709;BMP180;7954;51.914;8.420;2022-10-31T14:02:14;100386.06;;;28.50
15709;BMP180;7954;51.914;8.420;2022-10-31T14:04:46;100376.75;;;28.52
15709;BMP180;7954;51.914;8.420;2022-10-31T14:07:18;100365.84;;;28.56
15709;BMP180;7954;51.914;8.420;2022-10-31T14:09:54;100364.81;;;28.54
15709;BMP180;7954;51.914;8.420;2022-10-31T14:12:27;100361.78;;;28.50
15709;BMP180;7954;51.914;8.420;2022-10-31T14:14:59;100360.56;;;28.46
15709;BMP180;7954;51.914;8.420;2022-10-31T14:17:33;100354.63;;;28.39
15709;BMP180;7954;51.914;8.420;2022-10-31T14:20:33;100354.34;;;28.36
15709;BMP180;7954;51.914;8.420;2022-10-31T14:23:36;100350.44;;;28.22
15709;BMP180;7954;51.914;8.420;2022-10-31T14:26:19;100340.19;;;28.15
15709;BMP180;7954;51.914;8.420;2022-10-31T14:28:49;100339.16;;;28.05
15709;BMP180;7954;51.914;8.420;2022-10-31T14:31:30;100345.75;;;27.93
15709;BMP180;7954;51.914;8.420;2022-10-31T14:34:15;100340.78;;;27.78
15709;BMP180;7954;51.914;8.420;2022-10-31T14:36:50;100339.69;;;27.76
15709;BMP180;7954;51.914;8.420;2022-10-31T14:39:27;100338.19;;;27.69
15709;BMP180;7954;51.914;8.420;2022-10-31T14:42:10;100324.47;;;27.62
15709;BMP180;7954;51.914;8.420;2022-10-31T14:45:05;100321.84;;;27.53